createdAt,value
2023-04-05T00:01:58.780Z,0.82
2023-04-05T00:04:50.696Z,1.00
2023-04-05T00:07:36.146Z,0.95
2023-04-05T00:10:21.495Z,1.10
2023-04-05T00:13:06.729Z,1.30
2023-04-05T00:15:52.212Z,0.80
2023-04-05T00:18:38.672Z,1.02
2023-04-05T00:21:25.001Z,0.80
2023-04-05T00:24:15.497Z,0.90
2023-04-05T00:27:01.440Z,1.80
2023-04-05T00:29:46.771Z,0.80
2023-04-05T00:32:32.679Z,0.95
2023-04-05T00:35:18.217Z,0.52
2023-04-05T00:38:03.434Z,0.60
2023-04-05T00:40:48.996Z,0.60
2023-04-05T00:43:34.912Z,0.60
2023-04-05T00:46:20.711Z,0.60
2023-04-05T00:49:06.028Z,0.50
2023-04-05T00:51:52.334Z,0.60
2023-04-05T00:54:39.248Z,0.40
2023-04-05T00:57:26.461Z,0.50
2023-04-05T01:00:12.147Z,0.50
2023-04-05T01:03:03.578Z,0.30
2023-04-05T01:06:02.109Z,0.23
2023-04-05T01:09:13.468Z,0.20
2023-04-05T01:12:03.005Z,0.20
2023-04-05T01:14:51.569Z,0.20
2023-04-05T01:17:39.278Z,0.20
2023-04-05T01:20:26.100Z,0.13
2023-04-05T01:23:40.294Z,0.20
2023-04-05T01:26:47.603Z,0.20
2023-04-05T01:29:46.478Z,0.13
2023-04-05T01:32:55.429Z,0.17
2023-04-05T01:35:52.181Z,0.30
2023-04-05T01:38:40.680Z,0.17
2023-04-05T01:41:27.238Z,0.20
2023-04-05T01:44:12.948Z,0.10
2023-04-05T01:46:58.393Z,0.20
2023-04-05T01:49:43.775Z,0.30
2023-04-05T01:52:29.123Z,0.80
2023-04-05T01:55:14.506Z,0.30
2023-04-05T01:58:00.007Z,0.30
2023-04-05T02:00:45.876Z,0.40
2023-04-05T02:03:31.395Z,0.35
2023-04-05T02:06:17.752Z,0.30
2023-04-05T02:09:03.254Z,0.40
2023-04-05T02:11:48.682Z,0.57
2023-04-05T02:14:35.433Z,0.20
2023-04-05T02:17:21.939Z,0.30
2023-04-05T02:20:09.123Z,0.25
2023-04-05T02:22:55.441Z,0.25
2023-04-05T02:25:41.011Z,0.30
2023-04-05T02:28:26.579Z,0.30
2023-04-05T02:31:13.639Z,0.22
2023-04-05T02:34:01.153Z,0.38
2023-04-05T02:36:47.369Z,0.25
2023-04-05T02:39:33.005Z,0.20
2023-04-05T02:42:18.473Z,0.47
2023-04-05T02:45:03.990Z,0.40
2023-04-05T02:47:50.195Z,0.30
2023-04-05T02:50:36.112Z,0.30
2023-04-05T02:53:22.504Z,0.30
2023-04-05T02:56:17.780Z,0.40
2023-04-05T02:59:06.245Z,0.20
2023-04-05T03:01:51.974Z,0.40
2023-04-05T03:04:44.984Z,0.20
2023-04-05T03:07:33.404Z,0.20
2023-04-05T03:10:28.978Z,0.38
2023-04-05T03:13:21.228Z,0.30
2023-04-05T03:16:07.705Z,0.28
2023-04-05T03:18:54.824Z,0.22
2023-04-05T03:21:41.189Z,0.30
2023-04-05T03:24:39.127Z,0.40
2023-04-05T03:27:29.191Z,0.30
2023-04-05T03:30:36.061Z,0.30
2023-04-05T03:33:33.406Z,0.35
2023-04-05T03:36:19.911Z,0.32
2023-04-05T03:39:12.676Z,0.20
2023-04-05T03:41:58.535Z,0.38
2023-04-05T03:44:43.779Z,0.30
2023-04-05T03:47:29.286Z,0.10
2023-04-05T03:50:18.061Z,0.30
2023-04-05T03:53:04.285Z,0.20
2023-04-05T03:55:50.619Z,0.20
2023-04-05T03:58:40.495Z,0.30
2023-04-05T04:01:27.145Z,0.30
2023-04-05T04:04:13.748Z,0.40
2023-04-05T04:07:03.478Z,0.22
2023-04-05T04:09:49.369Z,0.30
2023-04-05T04:12:35.444Z,0.40
2023-04-05T04:15:21.311Z,0.30
2023-04-05T04:18:20.417Z,0.43
2023-04-05T04:21:24.985Z,0.50
2023-04-05T04:24:21.870Z,0.30
2023-04-05T04:27:31.872Z,0.30
2023-04-05T04:30:30.337Z,0.40
2023-04-05T04:33:34.793Z,0.40
2023-04-05T04:36:37.052Z,0.30
2023-04-05T04:39:39.787Z,0.40
2023-04-05T04:42:38.993Z,0.68
2023-04-05T04:45:38.024Z,0.30
2023-04-05T04:48:59.217Z,0.38
2023-04-05T04:51:50.485Z,0.60
2023-04-05T04:54:42.457Z,0.52
2023-04-05T04:57:28.013Z,0.43
2023-04-05T05:00:15.989Z,0.40
2023-04-05T05:03:02.179Z,0.57
2023-04-05T05:05:50.437Z,0.45
2023-04-05T05:08:40.377Z,0.35
2023-04-05T05:11:25.843Z,0.52
2023-04-05T05:14:11.210Z,0.30
2023-04-05T05:16:59.281Z,0.45
2023-04-05T05:19:47.493Z,0.50
2023-04-05T05:22:32.816Z,0.30
2023-04-05T05:25:18.407Z,0.30
2023-04-05T05:28:04.195Z,0.30
2023-04-05T05:30:49.914Z,0.35
2023-04-05T05:33:35.683Z,0.50
2023-04-05T05:36:21.176Z,0.40
2023-04-05T05:39:07.953Z,0.32
2023-04-05T05:41:53.448Z,0.40
2023-04-05T05:44:38.782Z,0.50
2023-04-05T05:47:24.503Z,0.32
2023-04-05T05:50:10.388Z,0.52
2023-04-05T05:52:55.908Z,0.50
2023-04-05T05:55:41.810Z,0.35
2023-04-05T05:58:27.136Z,0.30
2023-04-05T06:01:12.386Z,0.38
2023-04-05T06:03:57.940Z,0.30
2023-04-05T06:06:44.064Z,0.50
2023-04-05T06:09:29.755Z,0.40
2023-04-05T06:12:15.418Z,0.80
2023-04-05T06:15:02.258Z,0.32
2023-04-05T06:17:47.869Z,0.30
2023-04-05T06:20:33.077Z,0.47
2023-04-05T06:23:18.425Z,0.40
2023-04-05T06:26:03.823Z,0.50
2023-04-05T06:28:49.809Z,0.63
2023-04-05T06:31:36.387Z,0.40
2023-04-05T06:34:21.902Z,0.30
2023-04-05T06:37:07.414Z,0.43
2023-04-05T06:39:52.994Z,0.55
2023-04-05T06:42:38.199Z,0.32
2023-04-05T06:45:26.410Z,0.60
2023-04-05T06:48:12.136Z,0.60
2023-04-05T06:51:02.304Z,0.70
2023-04-05T06:53:47.552Z,0.50
2023-04-05T06:56:32.906Z,0.40
2023-04-05T06:59:18.221Z,0.47
2023-04-05T07:02:03.583Z,0.70
2023-04-05T07:04:49.123Z,0.50
2023-04-05T07:07:39.469Z,0.50
2023-04-05T07:10:24.853Z,0.50
2023-04-05T07:13:10.395Z,0.52
2023-04-05T07:16:03.527Z,0.50
2023-04-05T07:18:48.930Z,0.85
2023-04-05T07:21:36.614Z,0.90
2023-04-05T07:24:21.939Z,1.38
2023-04-05T07:27:07.477Z,0.55
2023-04-05T07:29:53.053Z,1.00
2023-04-05T07:32:38.373Z,0.60
2023-04-05T07:35:23.627Z,0.70
2023-04-05T07:38:11.360Z,0.70
2023-04-05T07:40:56.626Z,0.90
2023-04-05T07:43:42.152Z,0.70
2023-04-05T07:46:27.842Z,0.90
2023-04-05T07:49:13.563Z,0.98
2023-04-05T07:51:59.682Z,0.73
2023-04-05T07:54:45.952Z,1.10
2023-04-05T07:57:31.393Z,1.00
2023-04-05T08:00:17.514Z,0.80
2023-04-05T08:03:04.605Z,0.90
2023-04-05T08:05:50.317Z,1.00
2023-04-05T08:08:35.878Z,0.88
2023-04-05T08:11:21.671Z,1.05
2023-04-05T08:14:07.085Z,0.77
2023-04-05T08:16:52.679Z,0.68
2023-04-05T08:19:38.085Z,1.10
2023-04-05T08:22:23.463Z,0.63
2023-04-05T08:25:09.396Z,1.00
2023-04-05T08:27:54.590Z,0.82
2023-04-05T08:30:41.441Z,0.70
2023-04-05T08:33:28.557Z,1.13
2023-04-05T08:36:13.924Z,0.75
2023-04-05T08:38:59.379Z,0.90
2023-04-05T08:41:54.533Z,0.65
2023-04-05T08:44:41.452Z,1.23
2023-04-05T08:47:27.749Z,0.63
2023-04-05T08:50:13.785Z,0.98
2023-04-05T08:52:59.498Z,0.98
2023-04-05T08:56:06.208Z,0.55
2023-04-05T08:59:23.164Z,1.10
2023-04-05T09:02:18.989Z,0.63
2023-04-05T09:05:09.609Z,0.70
2023-04-05T09:07:58.328Z,0.85
2023-04-05T09:10:44.414Z,0.80
2023-04-05T09:13:29.943Z,0.90
2023-04-05T09:16:17.221Z,0.90
2023-04-05T09:19:02.797Z,0.52
2023-04-05T09:22:01.682Z,1.13
2023-04-05T09:24:47.621Z,0.63
2023-04-05T09:27:36.567Z,0.52
2023-04-05T09:30:23.224Z,0.70
2023-04-05T09:33:10.588Z,0.28
2023-04-05T09:35:56.391Z,0.88
2023-04-05T09:38:43.957Z,0.80
2023-04-05T09:41:29.344Z,0.50
2023-04-05T09:44:14.679Z,0.55
2023-04-05T09:47:18.793Z,0.65
2023-04-05T09:50:18.855Z,0.57
2023-04-05T09:53:16.608Z,0.73
2023-04-05T09:56:11.270Z,0.50
2023-04-05T09:59:07.493Z,0.70
2023-04-05T10:01:52.958Z,0.52
2023-04-05T10:04:45.493Z,0.77
2023-04-05T10:07:30.939Z,0.73
2023-04-05T10:10:16.431Z,0.70
2023-04-05T10:13:06.007Z,0.45
2023-04-05T10:15:56.677Z,0.40
2023-04-05T10:18:52.827Z,0.50
2023-04-05T10:21:42.365Z,0.40
2023-04-05T10:24:27.783Z,0.52
2023-04-05T10:27:23.061Z,0.85
2023-04-05T10:30:09.913Z,0.40
2023-04-05T10:33:16.771Z,0.47
2023-04-05T10:36:29.842Z,0.65
2023-04-05T10:39:35.523Z,0.35
2023-04-05T10:42:27.697Z,0.32
2023-04-05T10:45:18.049Z,1.17
2023-04-05T10:48:25.276Z,0.77
2023-04-05T10:51:12.467Z,0.55
2023-04-05T10:53:58.825Z,0.50
2023-04-05T10:56:44.856Z,0.52
2023-04-05T10:59:31.401Z,0.70
2023-04-05T11:02:18.483Z,0.80
2023-04-05T11:05:05.185Z,0.40
2023-04-05T11:07:51.504Z,1.00
2023-04-05T11:10:39.664Z,0.85
2023-04-05T11:13:49.048Z,0.70
2023-04-05T11:16:41.201Z,0.45
2023-04-05T11:20:05.178Z,0.95
2023-04-05T11:22:54.729Z,0.70
2023-04-05T11:25:41.657Z,0.52
2023-04-05T11:28:39.680Z,0.55
2023-04-05T11:31:27.073Z,1.05
2023-04-05T11:34:12.386Z,0.50
2023-04-05T11:36:57.813Z,0.70
2023-04-05T11:39:43.296Z,0.85
2023-04-05T11:42:28.644Z,0.40
2023-04-05T11:45:14.080Z,0.50
2023-04-05T11:48:10.462Z,0.55
2023-04-05T11:50:57.339Z,0.77
2023-04-05T11:53:48.952Z,0.80
2023-04-05T11:56:34.402Z,0.40
2023-04-05T11:59:19.849Z,0.63
2023-04-05T12:02:08.200Z,0.40
2023-04-05T12:04:56.176Z,0.68
2023-04-05T12:07:41.483Z,0.98
2023-04-05T12:10:30.865Z,0.68
2023-04-05T12:13:27.594Z,0.98
2023-04-05T12:16:13.383Z,0.70
2023-04-05T12:19:00.903Z,0.88
2023-04-05T12:21:46.433Z,0.68
2023-04-05T12:24:32.337Z,1.30
2023-04-05T12:27:18.219Z,0.70
2023-04-05T12:30:16.306Z,0.50
2023-04-05T12:33:08.951Z,0.70
2023-04-05T12:35:55.000Z,0.50
2023-04-05T12:38:40.426Z,0.60
2023-04-05T12:41:33.228Z,0.50
2023-04-05T12:44:31.742Z,0.85
2023-04-05T12:47:17.688Z,0.60
2023-04-05T12:50:14.494Z,0.60
2023-04-05T12:53:15.748Z,0.90
2023-04-05T12:56:01.724Z,0.60
2023-04-05T12:58:51.111Z,0.73
2023-04-05T13:01:36.456Z,0.43
2023-04-05T13:04:23.248Z,0.52
2023-04-05T13:07:08.699Z,0.70
2023-04-05T13:09:53.999Z,0.73
2023-04-05T13:12:39.614Z,0.50
2023-04-05T13:15:25.296Z,0.60
2023-04-05T13:18:10.889Z,0.60
2023-04-05T13:20:56.524Z,0.88
2023-04-05T13:23:42.060Z,1.67
2023-04-05T13:26:27.698Z,1.13
2023-04-05T13:29:13.269Z,0.82
2023-04-05T13:31:58.550Z,0.70
2023-04-05T13:34:44.437Z,0.70
2023-04-05T13:37:29.934Z,0.55
2023-04-05T13:40:19.121Z,0.68
2023-04-05T13:43:05.112Z,0.57
2023-04-05T13:45:51.026Z,0.57
2023-04-05T13:48:37.071Z,0.70
2023-04-05T13:51:23.042Z,0.50
2023-04-05T13:54:11.413Z,0.43
2023-04-05T13:56:57.299Z,0.52
2023-04-05T13:59:42.729Z,0.50
2023-04-05T14:02:28.765Z,0.52
2023-04-05T14:05:15.570Z,0.65
2023-04-05T14:08:01.210Z,0.50
2023-04-05T14:10:46.594Z,0.50
2023-04-05T14:13:31.949Z,0.50
2023-04-05T14:16:17.433Z,0.50
2023-04-05T14:19:02.607Z,0.50
2023-04-05T14:21:48.628Z,0.52
2023-04-05T14:24:34.346Z,0.32
2023-04-05T14:27:26.547Z,0.55
2023-04-05T14:30:12.492Z,0.50
2023-04-05T14:32:58.277Z,0.65
2023-04-05T14:35:44.027Z,0.40
2023-04-05T14:38:29.393Z,0.40
2023-04-05T14:41:14.858Z,0.50
2023-04-05T14:44:00.861Z,0.77
2023-04-05T14:46:46.430Z,0.43
2023-04-05T14:49:31.799Z,0.45
2023-04-05T14:52:17.216Z,0.63
2023-04-05T14:55:02.530Z,0.55
2023-04-05T14:57:48.028Z,0.50
2023-04-05T15:00:34.751Z,0.63
2023-04-05T15:03:20.562Z,0.50
2023-04-05T15:06:06.599Z,0.60
2023-04-05T15:08:52.080Z,0.70
2023-04-05T15:11:39.362Z,0.50
2023-04-05T15:14:31.753Z,0.88
2023-04-05T15:17:18.038Z,1.17
2023-04-05T15:20:03.490Z,0.40
2023-04-05T15:22:49.155Z,0.77
2023-04-05T15:25:34.470Z,1.40
2023-04-05T15:28:19.958Z,1.33
2023-04-05T15:31:05.555Z,1.77
2023-04-05T15:33:51.346Z,1.33
2023-04-05T15:36:37.238Z,2.30
2023-04-05T15:39:23.970Z,2.47
2023-04-05T15:42:09.582Z,2.08
2023-04-05T15:44:55.264Z,1.73
2023-04-05T15:47:41.048Z,2.08
2023-04-05T15:50:27.161Z,2.28
2023-04-05T15:53:12.393Z,2.15
2023-04-05T15:55:58.387Z,2.50
2023-04-05T15:58:44.277Z,2.25
2023-04-05T16:01:29.950Z,1.85
2023-04-05T16:04:15.941Z,1.95
2023-04-05T16:07:01.741Z,3.22
2023-04-05T16:09:47.140Z,3.60
2023-04-05T16:12:32.725Z,1.50
2023-04-05T16:15:18.279Z,2.05
2023-04-05T16:18:03.748Z,2.85
2023-04-05T16:20:49.307Z,2.00
2023-04-05T16:23:34.951Z,2.00
2023-04-05T16:26:20.537Z,2.30
2023-04-05T16:29:05.799Z,2.30
2023-04-05T16:31:51.243Z,1.98
2023-04-05T16:34:36.574Z,2.45
2023-04-05T16:37:21.995Z,2.30
2023-04-05T16:40:10.241Z,2.28
2023-04-05T16:42:55.877Z,2.15
2023-04-05T16:45:42.160Z,2.15
2023-04-05T16:48:27.795Z,1.60
2023-04-05T16:51:13.226Z,2.03
2023-04-05T16:53:58.950Z,2.03
2023-04-05T16:56:44.563Z,1.67
2023-04-05T16:59:30.007Z,1.63
2023-04-05T17:02:18.080Z,1.67
2023-04-05T17:05:03.661Z,1.88
2023-04-05T17:07:49.363Z,1.98
2023-04-05T17:10:35.422Z,1.90
2023-04-05T17:13:21.177Z,2.20
2023-04-05T17:16:07.391Z,2.30
2023-04-05T17:18:52.927Z,2.05
2023-04-05T17:21:38.371Z,2.38
2023-04-05T17:24:25.898Z,2.50
2023-04-05T17:27:12.028Z,2.33
2023-04-05T17:29:59.171Z,1.65
2023-04-05T17:32:44.512Z,2.10
2023-04-05T17:35:29.819Z,1.80
2023-04-05T17:38:15.402Z,1.77
2023-04-05T17:41:00.986Z,2.10
2023-04-05T17:43:46.906Z,1.52
2023-04-05T17:46:42.750Z,2.00
2023-04-05T17:49:31.868Z,2.45
2023-04-05T17:52:17.121Z,1.92
2023-04-05T17:55:03.250Z,1.42
2023-04-05T17:57:48.987Z,2.00
2023-04-05T18:00:34.806Z,1.88
2023-04-05T18:03:20.110Z,2.47
2023-04-05T18:06:06.333Z,1.60
2023-04-05T18:08:51.959Z,2.35
2023-04-05T18:11:37.447Z,2.58
2023-04-05T18:14:22.951Z,2.15
2023-04-05T18:17:08.490Z,2.72
2023-04-05T18:19:54.844Z,2.78
2023-04-05T18:22:40.464Z,2.70
2023-04-05T18:25:26.509Z,3.80
2023-04-05T18:28:22.363Z,3.60
2023-04-05T18:31:10.004Z,3.45
2023-04-05T18:33:55.753Z,3.58
2023-04-05T18:36:41.239Z,3.70
2023-04-05T18:39:27.743Z,5.18
2023-04-05T18:42:13.394Z,4.65
2023-04-05T18:45:00.498Z,4.53
2023-04-05T18:47:46.118Z,4.75
2023-04-05T18:50:31.466Z,5.60
2023-04-05T18:53:16.792Z,5.28
2023-04-05T18:56:02.586Z,7.45
2023-04-05T18:58:48.232Z,4.85
2023-04-05T19:01:34.230Z,4.65
2023-04-05T19:04:20.156Z,5.65
2023-04-05T19:07:05.817Z,6.20
2023-04-05T19:09:51.292Z,5.03
2023-04-05T19:12:36.633Z,3.65
2023-04-05T19:15:22.006Z,3.53
2023-04-05T19:18:07.461Z,14.13
2023-04-05T19:21:04.736Z,13.52
2023-04-05T19:23:50.065Z,15.27
2023-04-05T19:26:35.706Z,5.45
2023-04-05T19:29:21.195Z,8.07
2023-04-05T19:32:06.923Z,4.68
2023-04-05T19:34:52.880Z,24.55
2023-04-05T19:37:38.613Z,18.85
2023-04-05T19:40:25.420Z,6.68
2023-04-05T19:43:12.514Z,4.75
2023-04-05T19:46:00.158Z,7.90
2023-04-05T19:48:46.759Z,4.45
2023-04-05T19:51:33.700Z,5.32
2023-04-05T19:54:20.041Z,4.38
2023-04-05T19:57:06.572Z,5.72
2023-04-05T19:59:53.111Z,6.13
2023-04-05T20:02:38.670Z,5.57
2023-04-05T20:05:42.400Z,6.60
2023-04-05T20:08:28.970Z,5.03
2023-04-05T20:11:17.018Z,4.22
2023-04-05T20:14:04.002Z,2.92
2023-04-05T20:16:49.888Z,6.30
2023-04-05T20:19:39.181Z,2.50
2023-04-05T20:22:27.082Z,2.30
2023-04-05T20:25:35.039Z,2.22
2023-04-05T20:28:26.690Z,1.60
2023-04-05T20:31:19.053Z,1.80
2023-04-05T20:34:24.910Z,1.90
2023-04-05T20:37:12.004Z,1.70
2023-04-05T20:39:57.721Z,1.65
2023-04-05T20:42:43.174Z,1.50
2023-04-05T20:45:28.698Z,2.20
2023-04-05T20:48:13.913Z,2.10
2023-04-05T20:51:00.764Z,1.10
2023-04-05T20:53:46.616Z,1.40
2023-04-05T20:56:32.148Z,1.70
2023-04-05T20:59:17.676Z,1.50
2023-04-05T21:02:03.023Z,1.75
2023-04-05T21:04:50.551Z,1.83
2023-04-05T21:07:36.552Z,1.67
2023-04-05T21:10:22.114Z,1.63
2023-04-05T21:13:07.307Z,1.40
2023-04-05T21:15:54.049Z,2.45
2023-04-05T21:18:40.079Z,2.03
2023-04-05T21:21:26.337Z,1.75
2023-04-05T21:24:11.765Z,1.73
2023-04-05T21:26:57.117Z,1.95
2023-04-05T21:29:42.495Z,2.30
2023-04-05T21:32:27.836Z,4.93
2023-04-05T21:35:13.330Z,2.13
2023-04-05T21:37:58.980Z,1.40
2023-04-05T21:40:47.880Z,1.27
2023-04-05T21:43:33.109Z,1.83
2023-04-05T21:46:20.469Z,1.30
2023-04-05T21:49:06.662Z,1.42
2023-04-05T21:51:52.300Z,1.55
2023-04-05T21:54:37.740Z,1.52
2023-04-05T21:57:23.197Z,1.70
2023-04-05T22:00:12.245Z,1.83
2023-04-05T22:03:00.995Z,1.80
2023-04-05T22:05:46.451Z,1.63
2023-04-05T22:08:34.134Z,1.33
2023-04-05T22:11:20.525Z,1.50
2023-04-05T22:14:06.054Z,2.05
2023-04-05T22:16:51.620Z,1.60
2023-04-05T22:19:37.187Z,1.95
2023-04-05T22:22:22.623Z,1.73
2023-04-05T22:25:09.226Z,1.90
2023-04-05T22:28:00.024Z,1.77
2023-04-05T22:30:46.029Z,3.13
2023-04-05T22:33:31.699Z,1.90
2023-04-05T22:36:17.224Z,2.08
2023-04-05T22:39:02.913Z,2.17
2023-04-05T22:41:48.257Z,2.88
2023-04-05T22:44:33.606Z,1.92
2023-04-05T22:47:18.892Z,3.20
2023-04-05T22:50:04.590Z,2.50
2023-04-05T22:52:49.941Z,2.03
2023-04-05T22:55:37.479Z,2.60
2023-04-05T22:58:23.095Z,2.42
2023-04-05T23:01:08.576Z,2.00
2023-04-05T23:03:53.840Z,2.30
2023-04-05T23:06:39.244Z,2.35
2023-04-05T23:09:24.634Z,1.98
2023-04-05T23:12:11.608Z,1.98
2023-04-05T23:14:58.364Z,2.05
2023-04-05T23:17:43.968Z,1.95
2023-04-05T23:20:29.204Z,2.10
2023-04-05T23:23:15.569Z,1.90
2023-04-05T23:26:01.011Z,2.25
2023-04-05T23:28:46.744Z,2.30
2023-04-05T23:31:32.367Z,2.25
2023-04-05T23:34:17.776Z,1.77
2023-04-05T23:37:03.095Z,1.85
2023-04-05T23:39:48.352Z,2.13
2023-04-05T23:42:33.666Z,2.00
2023-04-05T23:45:19.097Z,2.05
2023-04-05T23:48:04.781Z,1.58
2023-04-05T23:50:50.411Z,2.05
2023-04-05T23:53:36.416Z,1.80
2023-04-05T23:56:21.943Z,1.90
2023-04-05T23:59:07.807Z,1.77
